createdAt,value
2017-09-28T00:02:10.292Z,99.90
2017-09-28T00:04:37.953Z,99.90
2017-09-28T00:07:05.516Z,99.90
2017-09-28T00:09:33.054Z,99.90
2017-09-28T00:12:00.613Z,99.90
2017-09-28T00:14:28.168Z,99.90
2017-09-28T00:16:55.729Z,99.90
2017-09-28T00:19:23.275Z,99.90
2017-09-28T00:21:51.605Z,99.90
2017-09-28T00:24:19.148Z,99.90
2017-09-28T00:26:46.688Z,99.90
2017-09-28T00:29:14.252Z,99.90
2017-09-28T00:31:41.823Z,99.90
2017-09-28T00:34:09.388Z,99.90
2017-09-28T00:36:36.929Z,99.90
2017-09-28T00:39:04.530Z,99.90
2017-09-28T00:41:32.065Z,99.90
2017-09-28T00:43:59.649Z,99.90
2017-09-28T00:46:27.205Z,99.90
2017-09-28T00:48:54.750Z,99.90
2017-09-28T00:51:22.306Z,99.90
2017-09-28T00:53:49.853Z,99.90
2017-09-28T00:56:17.394Z,99.90
2017-09-28T00:58:44.953Z,99.90
2017-09-28T01:01:12.521Z,99.90
2017-09-28T01:03:40.060Z,99.90
2017-09-28T01:06:07.605Z,99.90
2017-09-28T01:08:35.180Z,99.90
2017-09-28T01:11:02.756Z,99.90
2017-09-28T01:13:30.355Z,99.90
2017-09-28T01:15:58.656Z,99.90
2017-09-28T01:18:26.214Z,99.90
2017-09-28T01:20:53.770Z,99.90
2017-09-28T01:23:21.338Z,99.90
2017-09-28T01:25:48.920Z,99.90
2017-09-28T01:28:16.484Z,99.90
2017-09-28T01:30:44.048Z,99.90
2017-09-28T01:33:11.582Z,99.90
2017-09-28T01:35:39.139Z,99.90
2017-09-28T01:38:06.679Z,99.90
2017-09-28T01:40:34.259Z,99.90
2017-09-28T01:43:01.796Z,99.90
2017-09-28T01:45:29.358Z,99.90
2017-09-28T01:47:57.670Z,99.90
2017-09-28T01:50:25.227Z,99.90
2017-09-28T01:52:52.801Z,99.90
2017-09-28T01:55:20.359Z,99.90
2017-09-28T01:57:48.031Z,99.90
2017-09-28T02:00:15.586Z,99.90
2017-09-28T02:02:43.143Z,99.90
2017-09-28T02:05:10.713Z,99.90
2017-09-28T02:07:38.277Z,99.90
2017-09-28T02:10:05.817Z,99.90
2017-09-28T02:12:33.353Z,99.90
2017-09-28T02:15:00.954Z,99.90
2017-09-28T02:17:28.513Z,99.90
2017-09-28T02:19:56.046Z,99.90
2017-09-28T02:22:23.597Z,99.90
2017-09-28T02:24:51.179Z,99.90
2017-09-28T02:27:18.718Z,99.90
2017-09-28T02:29:46.394Z,99.90
2017-09-28T02:32:13.942Z,99.90
2017-09-28T02:34:41.511Z,99.90
2017-09-28T02:37:09.063Z,99.90
2017-09-28T02:39:36.739Z,99.90
2017-09-28T02:42:04.302Z,99.90
2017-09-28T02:44:31.858Z,99.90
2017-09-28T02:46:59.410Z,99.90
2017-09-28T02:49:26.969Z,99.90
2017-09-28T02:51:54.508Z,99.90
2017-09-28T02:54:22.065Z,99.90
2017-09-28T02:56:50.049Z,99.90
2017-09-28T02:59:17.590Z,99.90
2017-09-28T03:01:45.146Z,99.90
2017-09-28T03:04:12.685Z,99.90
2017-09-28T03:06:41.024Z,99.90
2017-09-28T03:09:08.568Z,99.90
2017-09-28T03:11:36.235Z,99.90
2017-09-28T03:14:03.785Z,99.90
2017-09-28T03:16:31.359Z,99.90
2017-09-28T03:18:58.918Z,99.90
2017-09-28T03:21:26.460Z,99.90
2017-09-28T03:23:54.022Z,99.90
2017-09-28T03:26:21.572Z,99.90
2017-09-28T03:28:49.157Z,99.90
2017-09-28T03:31:16.693Z,99.90
2017-09-28T03:33:44.252Z,99.90
2017-09-28T03:36:11.836Z,99.90
2017-09-28T03:38:39.377Z,99.90
2017-09-28T03:41:06.943Z,99.90
2017-09-28T03:43:34.493Z,99.90
2017-09-28T03:46:02.058Z,99.90
2017-09-28T03:48:29.613Z,99.90
2017-09-28T03:50:57.179Z,99.90
2017-09-28T03:53:24.733Z,99.90
2017-09-28T03:55:52.286Z,99.90
2017-09-28T03:58:19.822Z,99.90
2017-09-28T04:00:47.393Z,99.90
2017-09-28T04:03:14.940Z,99.90
2017-09-28T04:05:42.479Z,99.90
2017-09-28T04:08:10.804Z,99.90
2017-09-28T04:10:38.348Z,99.90
2017-09-28T04:13:05.921Z,99.90
2017-09-28T04:15:33.457Z,99.90
2017-09-28T04:18:01.021Z,99.90
2017-09-28T04:20:28.571Z,99.90
2017-09-28T04:22:56.138Z,99.90
2017-09-28T04:25:23.686Z,99.90
2017-09-28T04:27:51.264Z,99.90
2017-09-28T04:30:18.826Z,99.90
2017-09-28T04:32:46.363Z,99.90
2017-09-28T04:35:13.949Z,99.90
2017-09-28T04:37:42.027Z,99.90
2017-09-28T04:40:09.589Z,99.90
2017-09-28T04:42:37.165Z,99.90
2017-09-28T04:45:04.724Z,99.90
2017-09-28T04:47:32.262Z,99.90
2017-09-28T04:49:59.827Z,99.90
2017-09-28T04:52:27.360Z,99.90
2017-09-28T04:54:54.922Z,99.90
2017-09-28T04:57:22.474Z,99.90
2017-09-28T04:59:50.030Z,99.90
2017-09-28T05:02:17.572Z,99.90
2017-09-28T05:04:45.907Z,99.90
2017-09-28T05:07:13.456Z,99.90
2017-09-28T05:09:41.021Z,99.90
2017-09-28T05:12:08.568Z,99.90
2017-09-28T05:14:36.885Z,99.90
2017-09-28T05:17:04.445Z,99.90
2017-09-28T05:19:31.985Z,99.90
2017-09-28T05:21:59.537Z,99.90
2017-09-28T05:24:27.090Z,99.90
2017-09-28T05:26:54.628Z,99.90
2017-09-28T05:29:22.159Z,99.90
2017-09-28T05:31:49.721Z,99.90
2017-09-28T05:34:17.256Z,99.90
2017-09-28T05:36:44.802Z,99.90
2017-09-28T05:39:13.523Z,99.90
2017-09-28T05:41:41.065Z,99.90
2017-09-28T05:44:09.469Z,99.90
2017-09-28T05:46:37.025Z,99.90
2017-09-28T05:49:04.564Z,99.90
2017-09-28T05:51:32.113Z,99.90
2017-09-28T05:53:59.659Z,99.90
2017-09-28T05:56:27.221Z,99.90
2017-09-28T05:58:54.769Z,99.90
2017-09-28T06:01:23.165Z,99.90
2017-09-28T06:03:50.709Z,99.90
2017-09-28T06:06:19.033Z,99.90
2017-09-28T06:08:46.585Z,99.90
2017-09-28T06:11:14.175Z,99.90
2017-09-28T06:13:41.732Z,99.90
2017-09-28T06:16:09.287Z,99.90
2017-09-28T06:18:36.859Z,99.90
2017-09-28T06:21:05.930Z,99.90
2017-09-28T06:23:33.469Z,99.90
2017-09-28T06:26:01.060Z,99.90
2017-09-28T06:28:28.597Z,99.90
2017-09-28T06:30:56.155Z,99.90
2017-09-28T06:33:23.735Z,99.90
2017-09-28T06:35:51.282Z,99.90
2017-09-28T06:38:18.819Z,99.90
2017-09-28T06:40:46.371Z,99.90
2017-09-28T06:43:13.905Z,99.90
2017-09-28T06:45:42.233Z,99.90
2017-09-28T06:48:09.777Z,99.90
2017-09-28T06:50:37.361Z,99.90
2017-09-28T06:53:04.924Z,99.90
2017-09-28T06:55:32.489Z,99.90
2017-09-28T06:58:00.049Z,99.90
2017-09-28T07:00:27.578Z,99.90
2017-09-28T07:02:55.123Z,99.90
2017-09-28T07:05:22.688Z,99.90
2017-09-28T07:07:50.236Z,99.90
2017-09-28T07:10:19.457Z,99.90
2017-09-28T07:12:46.997Z,99.90
2017-09-28T07:15:15.327Z,99.90
2017-09-28T07:17:42.858Z,99.90
2017-09-28T07:20:10.408Z,99.90
2017-09-28T07:22:37.951Z,99.90
2017-09-28T07:25:06.278Z,99.90
2017-09-28T07:27:33.810Z,99.90
2017-09-28T07:30:01.386Z,99.90
2017-09-28T07:32:29.689Z,99.90
2017-09-28T07:34:57.230Z,99.90
2017-09-28T07:37:24.794Z,99.90
2017-09-28T07:39:53.105Z,99.90
2017-09-28T07:42:20.666Z,99.90
2017-09-28T07:44:48.204Z,99.90
2017-09-28T07:47:15.767Z,99.90
2017-09-28T07:49:43.316Z,99.90
2017-09-28T07:52:11.639Z,99.90
2017-09-28T07:54:39.198Z,99.90
2017-09-28T07:57:06.750Z,99.90
2017-09-28T07:59:34.290Z,99.90
2017-09-28T08:02:01.871Z,99.90
2017-09-28T08:04:29.439Z,99.90
2017-09-28T08:06:56.985Z,99.90
2017-09-28T08:09:24.643Z,99.90
2017-09-28T08:11:52.174Z,99.90
2017-09-28T08:14:19.720Z,99.90
2017-09-28T08:16:47.257Z,99.90
2017-09-28T08:19:15.590Z,99.90
2017-09-28T08:21:43.125Z,99.90
2017-09-28T08:24:10.657Z,99.90
2017-09-28T08:26:38.974Z,99.90
2017-09-28T08:29:06.509Z,99.90
2017-09-28T08:31:34.840Z,99.90
2017-09-28T08:34:02.373Z,99.90
2017-09-28T08:36:29.914Z,99.90
2017-09-28T08:38:57.456Z,99.90
2017-09-28T08:41:25.769Z,99.90
2017-09-28T08:43:53.305Z,99.90
2017-09-28T08:46:20.849Z,99.90
2017-09-28T08:48:49.147Z,99.90
2017-09-28T08:51:16.706Z,99.90
2017-09-28T08:53:44.265Z,99.90
2017-09-28T08:56:11.800Z,99.90
2017-09-28T08:58:40.115Z,99.90
2017-09-28T09:01:07.652Z,99.90
2017-09-28T09:03:35.218Z,99.90
2017-09-28T09:06:02.754Z,99.90
2017-09-28T09:08:31.074Z,99.90
2017-09-28T09:10:58.625Z,99.90
2017-09-28T09:13:26.195Z,99.90
2017-09-28T09:15:53.750Z,99.90
2017-09-28T09:18:21.290Z,99.90
2017-09-28T09:20:48.839Z,99.90
2017-09-28T09:23:16.366Z,99.90
2017-09-28T09:25:43.909Z,99.90
2017-09-28T09:28:12.237Z,99.90
2017-09-28T09:30:39.796Z,99.90
2017-09-28T09:33:07.628Z,99.90
2017-09-28T09:35:35.148Z,99.90
2017-09-28T09:38:02.717Z,99.90
2017-09-28T09:40:31.008Z,99.90
2017-09-28T09:42:58.562Z,99.90
2017-09-28T09:45:26.859Z,99.90
2017-09-28T09:47:54.417Z,99.90
2017-09-28T09:50:21.943Z,99.90
2017-09-28T09:52:49.483Z,99.90
2017-09-28T09:55:17.035Z,99.90
2017-09-28T09:57:44.563Z,99.90
2017-09-28T10:00:12.121Z,99.90
2017-09-28T10:02:39.654Z,99.90
2017-09-28T10:05:07.298Z,99.90
2017-09-28T10:07:45.969Z,99.90
2017-09-28T10:10:17.911Z,99.90
2017-09-28T10:12:54.298Z,99.90
2017-09-28T10:15:39.624Z,99.90
2017-09-28T10:18:07.145Z,99.90
2017-09-28T10:20:35.471Z,99.90
2017-09-28T10:23:03.040Z,99.90
2017-09-28T10:25:30.557Z,99.90
2017-09-28T10:27:58.099Z,99.90
2017-09-28T10:30:26.410Z,99.90
2017-09-28T10:32:53.959Z,99.90
2017-09-28T10:35:21.504Z,99.90
2017-09-28T10:37:49.799Z,99.90
2017-09-28T10:40:17.368Z,99.90
2017-09-28T10:42:44.908Z,99.90
2017-09-28T10:45:12.443Z,99.90
2017-09-28T10:47:40.014Z,99.90
2017-09-28T10:50:07.537Z,99.90
2017-09-28T10:52:35.849Z,99.90
2017-09-28T10:55:03.373Z,99.90
2017-09-28T10:57:30.956Z,99.90
2017-09-28T10:59:59.253Z,99.90
2017-09-28T11:02:26.780Z,99.90
2017-09-28T11:04:55.099Z,99.90
2017-09-28T11:07:22.649Z,99.90
2017-09-28T11:09:50.200Z,99.90
2017-09-28T11:12:17.742Z,99.90
2017-09-28T11:14:46.066Z,99.90
2017-09-28T11:17:13.604Z,99.90
2017-09-28T11:19:41.153Z,99.90
2017-09-28T11:22:08.725Z,99.90
2017-09-28T11:24:36.270Z,99.90
2017-09-28T11:27:04.597Z,96.60
2017-09-28T11:29:32.238Z,96.60
2017-09-28T11:31:59.781Z,94.90
2017-09-28T11:34:27.328Z,93.50
2017-09-28T11:36:56.146Z,94.00
2017-09-28T11:39:23.721Z,95.70
2017-09-28T11:41:51.264Z,94.80
2017-09-28T11:44:18.806Z,96.90
2017-09-28T11:46:46.368Z,94.20
2017-09-28T11:49:13.915Z,94.80
2017-09-28T11:51:41.437Z,96.10
2017-09-28T11:54:08.990Z,94.60
2017-09-28T11:56:36.605Z,95.40
2017-09-28T11:59:04.154Z,94.00
2017-09-28T12:01:31.704Z,93.90
2017-09-28T12:03:59.269Z,93.90
2017-09-28T12:06:26.818Z,93.60
2017-09-28T12:08:55.128Z,93.50
2017-09-28T12:11:22.669Z,93.40
2017-09-28T12:13:50.246Z,95.20
2017-09-28T12:16:17.802Z,94.40
2017-09-28T12:18:45.375Z,94.90
2017-09-28T12:21:12.933Z,96.40
2017-09-28T12:23:40.465Z,96.20
2017-09-28T12:26:08.042Z,98.10
2017-09-28T12:28:35.572Z,97.00
2017-09-28T12:31:03.133Z,94.30
2017-09-28T12:33:31.455Z,96.00
2017-09-28T12:35:59.008Z,96.10
2017-09-28T12:38:26.533Z,96.40
2017-09-28T12:40:54.098Z,95.20
2017-09-28T12:43:21.666Z,95.20
2017-09-28T12:45:49.225Z,93.40
2017-09-28T12:48:16.785Z,94.20
2017-09-28T12:50:44.344Z,92.70
2017-09-28T12:53:11.889Z,93.90
2017-09-28T12:55:40.238Z,93.40
2017-09-28T12:58:07.817Z,93.40
2017-09-28T13:00:35.366Z,91.00
2017-09-28T13:03:02.937Z,90.50
2017-09-28T13:05:30.464Z,91.00
2017-09-28T13:07:58.000Z,91.90
2017-09-28T13:10:25.552Z,91.20
2017-09-28T13:12:54.586Z,90.90
2017-09-28T13:15:22.154Z,90.90
2017-09-28T13:17:49.741Z,91.60
2017-09-28T13:20:17.273Z,90.20
2017-09-28T13:22:44.821Z,90.70
2017-09-28T13:25:12.374Z,89.80
2017-09-28T13:27:40.698Z,87.80
2017-09-28T13:30:08.249Z,88.10
2017-09-28T13:32:35.785Z,90.30
2017-09-28T13:35:03.346Z,86.50
2017-09-28T13:37:30.872Z,87.80
2017-09-28T13:39:58.459Z,84.00
2017-09-28T13:42:26.005Z,82.30
2017-09-28T13:44:53.561Z,81.40
2017-09-28T13:47:21.090Z,83.40
2017-09-28T13:49:49.437Z,82.60
2017-09-28T13:52:17.796Z,82.00
2017-09-28T13:54:45.316Z,82.00
2017-09-28T13:57:13.636Z,80.10
2017-09-28T13:59:41.171Z,80.10
2017-09-28T14:02:08.753Z,81.00
2017-09-28T14:04:36.284Z,81.60
2017-09-28T14:07:04.602Z,79.60
2017-09-28T14:09:32.137Z,79.70
2017-09-28T14:11:59.689Z,81.00
2017-09-28T14:14:27.234Z,80.90
2017-09-28T14:16:55.573Z,80.70
2017-09-28T14:19:23.114Z,80.70
2017-09-28T14:21:50.645Z,80.90
2017-09-28T14:24:18.213Z,79.00
2017-09-28T14:26:45.744Z,81.00
2017-09-28T14:29:14.057Z,82.70
2017-09-28T14:31:41.588Z,82.70
2017-09-28T14:34:09.900Z,81.30
2017-09-28T14:36:37.562Z,81.20
2017-09-28T14:39:05.114Z,80.40
2017-09-28T14:41:32.650Z,82.00
2017-09-28T14:44:00.218Z,82.60
2017-09-28T14:46:27.796Z,81.70
2017-09-28T14:48:55.363Z,82.50
2017-09-28T14:51:22.889Z,82.20
2017-09-28T14:53:51.200Z,82.80
2017-09-28T14:56:20.505Z,82.80
2017-09-28T14:58:48.809Z,81.60
2017-09-28T15:01:17.163Z,83.50
2017-09-28T15:03:44.693Z,83.40
2017-09-28T15:06:12.347Z,82.80
2017-09-28T15:08:39.901Z,83.80
2017-09-28T15:11:07.453Z,85.30
2017-09-28T15:13:34.998Z,84.60
2017-09-28T15:16:02.541Z,86.30
2017-09-28T15:18:30.858Z,86.50
2017-09-28T15:20:58.383Z,86.50
2017-09-28T15:23:26.691Z,90.10
2017-09-28T15:25:54.238Z,90.10
2017-09-28T15:28:21.778Z,89.70
2017-09-28T15:30:50.095Z,88.60
2017-09-28T15:33:17.640Z,88.40
2017-09-28T15:35:45.189Z,89.50
2017-09-28T15:38:12.734Z,90.80
2017-09-28T15:40:40.299Z,90.30
2017-09-28T15:43:07.835Z,91.30
2017-09-28T15:45:35.389Z,91.30
2017-09-28T15:48:02.930Z,91.70
2017-09-28T15:50:31.225Z,92.80
2017-09-28T15:52:58.783Z,92.80
2017-09-28T15:55:26.345Z,93.30
2017-09-28T15:57:53.941Z,92.80
2017-09-28T16:00:21.481Z,93.30
2017-09-28T16:02:49.037Z,93.70
2017-09-28T16:05:16.603Z,93.90
2017-09-28T16:07:44.130Z,94.60
2017-09-28T16:10:12.534Z,94.40
2017-09-28T16:12:40.093Z,94.40
2017-09-28T16:15:07.658Z,94.70
2017-09-28T16:17:35.225Z,94.80
2017-09-28T16:20:02.761Z,96.40
2017-09-28T16:22:30.309Z,99.90
2017-09-28T16:24:58.612Z,99.90
2017-09-28T16:27:26.574Z,99.90
2017-09-28T16:29:54.125Z,99.90
2017-09-28T16:32:21.685Z,99.90
2017-09-28T16:34:49.247Z,99.90
2017-09-28T16:37:16.819Z,99.90
2017-09-28T16:39:44.382Z,99.90
2017-09-28T16:42:11.911Z,99.90
2017-09-28T16:44:40.450Z,99.90
2017-09-28T16:47:08.016Z,99.90
2017-09-28T16:49:35.542Z,99.90
2017-09-28T16:52:03.103Z,99.90
2017-09-28T16:54:30.646Z,99.90
2017-09-28T16:56:58.199Z,99.90
2017-09-28T16:59:25.758Z,99.90
2017-09-28T17:01:54.066Z,99.90
2017-09-28T17:04:21.794Z,99.90
2017-09-28T17:06:50.089Z,99.90
2017-09-28T17:09:17.659Z,99.90
2017-09-28T17:11:45.234Z,99.90
2017-09-28T17:14:12.794Z,99.90
2017-09-28T17:16:40.331Z,99.90
2017-09-28T17:19:08.068Z,99.90
2017-09-28T17:21:37.262Z,99.90
2017-09-28T17:24:05.562Z,99.90
2017-09-28T17:26:33.142Z,99.90
2017-09-28T17:29:00.673Z,99.90
2017-09-28T17:31:29.299Z,99.90
2017-09-28T17:33:56.862Z,99.90
2017-09-28T17:36:24.399Z,99.90
2017-09-28T17:38:51.958Z,99.90
2017-09-28T17:41:19.497Z,99.90
2017-09-28T17:43:47.817Z,99.90
2017-09-28T17:46:15.365Z,99.90
2017-09-28T17:48:42.954Z,99.90
2017-09-28T17:51:10.584Z,99.90
2017-09-28T17:53:38.160Z,99.90
2017-09-28T17:56:05.702Z,99.90
2017-09-28T17:58:33.238Z,99.90
2017-09-28T18:01:00.797Z,99.90
2017-09-28T18:03:29.100Z,99.90
2017-09-28T18:05:56.666Z,99.90
2017-09-28T18:08:24.229Z,99.90
2017-09-28T18:10:51.769Z,99.90
2017-09-28T18:13:19.306Z,99.90
2017-09-28T18:15:47.646Z,99.90
2017-09-28T18:18:15.181Z,99.90
2017-09-28T18:20:42.762Z,99.90
2017-09-28T18:23:10.316Z,99.90
2017-09-28T18:25:37.858Z,99.90
2017-09-28T18:28:05.434Z,99.90
2017-09-28T18:30:32.972Z,99.90
2017-09-28T18:33:00.539Z,99.90
2017-09-28T18:35:28.129Z,99.90
2017-09-28T18:37:55.691Z,99.90
2017-09-28T18:40:23.271Z,99.90
2017-09-28T18:42:50.881Z,99.90
2017-09-28T18:45:18.441Z,99.90
2017-09-28T18:47:46.022Z,99.90
2017-09-28T18:50:13.566Z,99.90
2017-09-28T18:52:41.172Z,99.90
2017-09-28T18:55:08.735Z,99.90
2017-09-28T18:57:36.293Z,99.90
2017-09-28T19:00:03.825Z,99.90
2017-09-28T19:02:31.361Z,99.90
2017-09-28T19:04:58.925Z,99.90
2017-09-28T19:07:26.467Z,99.90
2017-09-28T19:09:54.068Z,99.90
2017-09-28T19:12:21.629Z,99.90
2017-09-28T19:14:49.190Z,99.90
2017-09-28T19:17:16.793Z,99.90
2017-09-28T19:19:44.323Z,99.90
2017-09-28T19:22:11.868Z,99.90
2017-09-28T19:24:39.503Z,99.90
2017-09-28T19:27:07.039Z,99.90
2017-09-28T19:29:34.579Z,99.90
2017-09-28T19:32:02.931Z,99.90
2017-09-28T19:34:30.490Z,99.90
2017-09-28T19:36:58.094Z,99.90
2017-09-28T19:39:25.637Z,99.90
2017-09-28T19:41:53.986Z,99.90
2017-09-28T19:44:22.327Z,99.90
2017-09-28T19:46:49.889Z,99.90
2017-09-28T19:49:17.427Z,99.90
2017-09-28T19:51:45.718Z,99.90
2017-09-28T19:54:13.337Z,99.90
2017-09-28T19:56:40.877Z,99.90
2017-09-28T19:59:09.699Z,99.90
2017-09-28T20:01:38.063Z,99.90
2017-09-28T20:04:05.625Z,99.90
2017-09-28T20:06:33.161Z,99.90
2017-09-28T20:09:00.717Z,99.90
2017-09-28T20:11:28.267Z,99.90
2017-09-28T20:13:55.819Z,99.90
2017-09-28T20:16:23.369Z,99.90
2017-09-28T20:18:50.940Z,99.90
2017-09-28T20:21:18.485Z,99.90
2017-09-28T20:23:46.030Z,99.90
2017-09-28T20:26:13.645Z,99.90
2017-09-28T20:28:41.276Z,99.90
2017-09-28T20:31:09.262Z,99.90
2017-09-28T20:33:36.821Z,99.90
2017-09-28T20:36:04.392Z,99.90
2017-09-28T20:38:31.942Z,99.90
2017-09-28T20:40:59.483Z,99.90
2017-09-28T20:43:27.146Z,99.90
2017-09-28T20:45:54.703Z,99.90
2017-09-28T20:48:22.237Z,99.90
2017-09-28T20:50:49.825Z,99.90
2017-09-28T20:53:17.387Z,99.90
2017-09-28T20:55:45.701Z,99.90
2017-09-28T20:58:13.285Z,99.90
2017-09-28T21:00:40.835Z,99.90
2017-09-28T21:03:08.400Z,99.90
2017-09-28T21:05:35.957Z,99.90
2017-09-28T21:08:03.518Z,99.90
2017-09-28T21:10:31.064Z,99.90
2017-09-28T21:12:58.679Z,99.90
2017-09-28T21:15:26.227Z,99.90
2017-09-28T21:17:53.860Z,99.90
2017-09-28T21:20:21.409Z,99.90
2017-09-28T21:22:48.959Z,99.90
2017-09-28T21:25:16.535Z,99.90
2017-09-28T21:27:44.072Z,99.90
2017-09-28T21:30:11.634Z,99.90
2017-09-28T21:32:39.195Z,99.90
2017-09-28T21:35:06.732Z,99.90
2017-09-28T21:37:34.285Z,99.90
2017-09-28T21:40:01.863Z,99.90
2017-09-28T21:42:30.171Z,99.90
2017-09-28T21:44:57.843Z,99.90
2017-09-28T21:47:25.504Z,99.90
2017-09-28T21:49:53.068Z,99.90
2017-09-28T21:52:20.621Z,99.90
2017-09-28T21:54:48.201Z,99.90
2017-09-28T21:57:15.757Z,99.90
2017-09-28T21:59:43.304Z,99.90
2017-09-28T22:02:10.865Z,99.90
2017-09-28T22:04:38.394Z,99.90
2017-09-28T22:07:06.711Z,99.90
2017-09-28T22:09:34.331Z,99.90
2017-09-28T22:12:02.640Z,99.90
2017-09-28T22:14:30.217Z,99.90
2017-09-28T22:16:57.773Z,99.90
2017-09-28T22:19:25.333Z,99.90
2017-09-28T22:21:52.925Z,99.90
2017-09-28T22:24:20.456Z,99.90
2017-09-28T22:26:48.015Z,99.90
2017-09-28T22:29:15.549Z,99.90
2017-09-28T22:31:43.119Z,99.90
2017-09-28T22:34:10.658Z,99.90
2017-09-28T22:36:38.208Z,99.90
2017-09-28T22:39:05.746Z,99.90
2017-09-28T22:41:34.081Z,99.90
2017-09-28T22:44:01.626Z,99.90
2017-09-28T22:46:29.194Z,99.90
2017-09-28T22:48:56.743Z,99.90
2017-09-28T22:51:24.362Z,99.90
2017-09-28T22:53:51.941Z,99.90
2017-09-28T22:56:20.424Z,99.90
2017-09-28T22:58:48.003Z,99.90
2017-09-28T23:01:15.565Z,99.90
2017-09-28T23:03:43.123Z,99.90
2017-09-28T23:06:10.666Z,99.90
2017-09-28T23:08:38.273Z,99.90
2017-09-28T23:11:05.805Z,99.90
2017-09-28T23:13:33.397Z,99.90
2017-09-28T23:16:01.729Z,99.90
2017-09-28T23:18:29.262Z,99.90
2017-09-28T23:20:56.832Z,99.90
2017-09-28T23:23:24.394Z,99.90
2017-09-28T23:25:51.974Z,99.90
2017-09-28T23:28:19.518Z,99.90
2017-09-28T23:30:47.080Z,99.90
2017-09-28T23:33:14.627Z,99.90
2017-09-28T23:35:42.187Z,99.90
2017-09-28T23:38:09.725Z,99.90
2017-09-28T23:40:38.064Z,99.90
2017-09-28T23:43:05.600Z,99.90
2017-09-28T23:45:33.166Z,99.90
2017-09-28T23:48:00.720Z,99.90
2017-09-28T23:50:28.381Z,99.90
2017-09-28T23:52:55.942Z,99.90
2017-09-28T23:55:23.507Z,99.90
2017-09-28T23:57:51.058Z,99.90
